Latest Weather Observations for Koolan Island / Koolan Central

IDW60801

Issued at 9:03 pm WST Friday 16 April 2021 (issued every 10 minutes, with the page automatically refreshed every 10 minutes)

About weather observations | Map of weather stations | Latest weather observations for WA | Other Formats
Station Details ID: 503621 Name: KOOLAN ISLAND (KOOLAN CENTRAL AIRPORT) Lat: -16.12 Lon: 123.74 Height: 163.2 m
Data from the previous 72 hours. | See also: Recent months for locations in Western Australia
Date/Time
WST
Temp
°C
App
Temp
°C
Dew
Point
°C
Rel
Hum
%
Delta-T
°C
Wind Press
QNH
hPa
Press
MSL
hPa
Rain since
9am
mm
Dir  Spd
km/h
Gust
km/h
Spd
kts
Gust
kts
16/09:00pm 28.9 29.6 18.9 54 6.5 SSW 13 17 7 9 1013.6 1012.5 0.0
16/08:30pm 28.8 30.4 20.8 62 5.3 SSW 13 15 7 8 1013.5 - 0.0
16/08:00pm 28.9 31.9 21.9 66 4.7 SW 9 13 5 7 1013.3 - 0.0
16/07:30pm 28.8 30.8 22.3 68 4.4 SW 15 19 8 10 1013.1 - 0.0
16/07:00pm 28.9 31.4 23.1 71 4.0 WSW 15 20 8 11 1012.8 - 0.0
16/06:30pm 29.1 31.6 23.1 70 4.1 WSW 15 20 8 11 1012.6 - 0.0
16/06:00pm 29.3 31.1 22.5 67 4.6 WSW 17 22 9 12 1012.5 - 0.0
16/05:30pm 29.3 30.7 22.5 67 4.6 WSW 19 22 10 12 1012.4 - 0.0
16/05:00pm 29.7 31.3 22.2 64 5.1 WSW 17 20 9 11 1012.3 - 0.0
16/04:30pm 30.2 32.6 21.6 60 5.8 WSW 11 17 6 9 1012.1 - 0.0
16/04:00pm 30.2 33.8 23.1 65 4.9 WNW 9 19 5 10 1011.9 - 0.0
16/03:30pm 30.2 32.3 20.2 55 6.6 N 9 15 5 8 1011.7 - 0.0
16/03:00pm 30.5 32.6 21.0 57 6.4 NNW 11 17 6 9 1011.7 - 0.0
16/02:30pm 30.7 31.6 18.4 47 8.0 NNW 11 17 6 9 1011.5 - 0.0
16/02:00pm 30.7 31.9 20.0 52 7.1 NNW 13 19 7 10 1011.5 - 0.0
16/01:30pm 30.5 32.8 22.1 61 5.7 NNE 13 19 7 10 1011.7 - 0.0
16/01:00pm 30.9 32.9 20.8 55 6.8 NNE 11 19 6 10 1012.0 - 0.0
16/12:30pm 30.8 32.8 21.6 58 6.2 NNE 13 19 7 10 1012.4 - 0.0
16/12:00pm 30.9 34.1 23.0 62 5.5 N 11 17 6 9 1012.8 - 0.0
16/11:30am 31.0 34.1 22.9 62 5.6 N 11 17 6 9 1013.4 - 0.0
16/11:00am 30.9 34.7 23.5 64 5.1 N 9 15 5 8 1013.9 - 0.0
16/10:30am 29.8 34.1 23.7 70 4.2 NNW 7 15 4 8 1014.3 - 0.0
16/10:00am 29.5 33.6 23.9 72 3.9 NNW 9 13 5 7 1014.7 - 0.0
16/09:30am 29.3 33.4 24.0 73 3.7 NW 9 15 5 8 1015.0 - 0.0
16/09:00am 29.3 34.1 24.4 75 3.4 NW 7 13 4 7 1014.9 - 0.0
16/08:30am 28.8 33.2 24.4 77 3.1 NNW 9 13 5 7 1014.8 - 0.0
16/08:00am 28.7 32.8 24.0 76 3.3 NNW 9 15 5 8 1014.5 - 0.0
16/07:30am 28.4 31.5 23.5 75 3.4 N 13 19 7 10 1014.0 - 0.0
16/07:00am 28.0 31.6 24.4 81 2.5 N 13 19 7 10 1013.7 - 0.0
16/06:30am 27.7 32.4 23.9 80 2.6 N 6 11 3 6 1013.5 - 0.0
16/06:00am 27.4 32.3 24.3 83 2.2 NNW 6 9 3 5 1013.2 - 0.0
16/05:30am 27.4 32.1 24.3 83 2.2 N 7 13 4 7 1012.7 - 0.0
16/05:00am 27.3 32.4 24.6 85 1.9 NNW 6 9 3 5 1012.5 - 0.0
16/04:30am 27.2 32.3 24.7 86 1.7 N 6 9 3 5 1012.1 - 0.0
16/04:00am 27.1 33.0 25.3 90 1.3 N 4 6 2 3 1012.0 - 0.0
16/03:30am 27.3 32.7 25.1 88 1.5 NW 6 9 3 5 1011.8 - 0.0
16/03:00am 27.0 32.5 25.6 92 1.0 NNW 7 11 4 6 1011.7 - 0.0
16/02:30am 27.2 32.7 25.6 91 1.1 WNW 7 9 4 5 1011.4 - 0.0
16/02:00am 27.5 32.7 25.7 90 1.3 WNW 9 11 5 6 1011.5 - 0.0
16/01:30am 27.6 32.6 25.4 88 1.6 W 9 11 5 6 1011.8 - 0.0
16/01:00am 27.6 32.7 25.6 89 1.4 WNW 9 11 5 6 1012.0 - 0.0
16/12:30am 27.5 33.2 25.9 91 1.1 NW 7 13 4 7 1012.1 - 0.0
16/12:10am 27.6 33.1 26.2 92 1.0 NW 9 13 5 7 1012.1 - 0.0
16/12:00am 27.6 33.3 26.4 93 0.9 NW 9 13 5 7 1012.2 - 0.0
 
Date/Time
WST
Temp
°C
App
Temp
°C
Dew
Point
°C
Rel
Hum
%
Delta-T
°C
Wind Press
QNH
hPa
Press
MSL
hPa
Rain since
9am
mm
Dir  Spd
km/h
Gust
km/h
Spd
kts
Gust
kts
15/11:41pm 27.7 33.0 26.5 93 0.9 NNW 11 15 6 8 1012.2 - 0.0
15/11:30pm 27.7 33.0 26.5 93 0.9 NNW 11 15 6 8 1012.3 - 0.0
15/11:00pm 27.7 32.9 26.3 92 1.0 N 11 15 6 8 1012.4 - 0.0
15/10:30pm 27.8 33.6 26.6 93 0.9 N 9 13 5 7 1012.4 - 0.0
15/10:00pm 27.9 33.5 26.3 91 1.1 N 9 13 5 7 1012.3 - 0.0
15/09:30pm 28.1 34.0 25.9 88 1.6 NNW 6 6 3 3 1012.4 - 0.0
15/09:00pm 28.2 34.0 25.8 87 1.7 NNW 6 6 3 3 1012.2 - 0.0
15/08:30pm 28.2 34.0 25.8 87 1.7 N 6 9 3 5 1012.1 - 0.0
15/08:00pm 28.3 33.9 25.7 86 1.8 NNW 7 9 4 5 1012.0 - 0.0
15/07:30pm 28.4 33.3 25.2 83 2.3 NNW 9 11 5 6 1011.7 - 0.0
15/07:00pm 28.5 33.7 25.1 82 2.4 NNW 7 11 4 6 1011.3 - 0.0
15/06:30pm 28.6 33.3 25.0 81 2.5 NNW 9 13 5 7 1010.9 - 0.0
15/06:00pm 28.7 33.5 25.1 81 2.5 NW 9 13 5 7 1010.6 - 0.0
15/05:30pm 28.9 33.7 25.1 80 2.7 NW 9 13 5 7 1010.2 - 0.0
15/05:00pm 29.6 34.5 24.7 75 3.4 NW 7 13 4 7 1010.0 - 0.0
15/04:30pm 29.4 33.5 25.2 78 3.0 NNW 13 19 7 10 1009.8 - 0.0
15/04:00pm 29.2 32.6 25.8 82 2.4 NNE 19 24 10 13 1009.6 - 0.0
15/03:30pm 30.0 32.8 25.3 76 3.3 NE 20 28 11 15 1009.6 - 0.0
15/03:00pm 29.9 32.6 24.8 74 3.6 NE 19 24 10 13 1009.5 - 0.0
15/02:30pm 29.7 32.7 24.6 74 3.6 NNE 17 20 9 11 1009.5 - 0.0
15/02:00pm 29.9 32.9 25.2 76 3.3 NNE 19 22 10 12 1009.8 - 0.0
15/01:30pm 30.2 32.9 24.1 70 4.3 NNE 17 22 9 12 1010.0 - 0.0
15/01:00pm 30.7 34.8 24.6 70 4.3 NE 11 19 6 10 1010.2 - 0.0
15/12:30pm 30.4 34.5 25.2 74 3.7 NE 13 20 7 11 1010.5 - 0.0
15/12:00pm 30.0 34.1 25.7 78 3.1 ENE 15 20 8 11 1010.8 - 0.0
15/11:30am 30.2 34.4 25.3 75 3.5 ENE 13 24 7 13 1011.3 - 0.0
15/11:00am 30.6 33.6 24.0 68 4.6 NE 15 24 8 13 1011.7 - 0.0
15/10:30am 30.3 33.9 24.4 70 4.1 NE 13 22 7 12 1012.1 - 0.0
15/10:00am 30.2 33.6 24.6 72 3.9 NE 15 22 8 12 1012.5 - 0.0
15/09:30am 30.5 33.2 23.4 66 4.9 NE 15 24 8 13 1012.7 - 0.0
15/09:00am 30.6 32.8 21.9 59 5.9 E 13 19 7 10 1012.6 - 0.0
15/08:30am 30.9 31.4 21.1 56 6.6 ESE 20 26 11 14 1012.3 - 0.0
15/08:00am 29.3 30.0 22.3 66 4.8 SSE 22 26 12 14 1012.2 - 0.0
15/07:30am 29.0 29.9 22.0 66 4.7 SSE 20 22 11 12 1012.2 - 0.0
15/07:00am 28.9 29.3 21.7 65 4.9 SSE 22 26 12 14 1011.9 - 0.0
15/06:30am 28.5 29.4 22.0 68 4.4 SSE 20 24 11 13 1011.5 - 0.0
15/06:00am 28.4 29.4 22.2 69 4.2 SSE 20 28 11 15 1011.3 - 0.0
15/05:30am 28.6 28.7 21.9 67 4.5 S 24 30 13 16 1011.1 - 0.0
15/05:00am 28.8 28.0 21.6 65 4.9 S 28 35 15 19 1010.8 - 0.0
15/04:30am 28.6 28.3 21.9 67 4.5 SSE 26 33 14 18 1010.5 - 0.0
15/04:00am 28.5 28.4 22.3 69 4.2 SSE 26 32 14 17 1010.4 - 0.0
15/03:30am 28.5 28.9 22.5 70 4.1 SSE 24 28 13 15 1010.4 - 0.0
15/03:00am 28.4 29.9 23.1 73 3.6 SE 20 26 11 14 1010.6 - 0.0
15/02:30am 28.6 30.0 22.8 71 4.0 SE 20 26 11 14 1010.7 - 0.0
15/02:00am 28.9 31.1 22.6 69 4.3 SSE 15 20 8 11 1010.9 - 0.0
15/01:30am 28.8 30.8 23.0 71 4.0 S 17 26 9 14 1010.7 - 0.0
15/01:00am 29.4 31.5 22.4 66 4.8 S 15 22 8 12 1010.7 - 0.0
15/12:30am 28.9 31.8 23.1 71 4.0 SW 13 19 7 10 1010.9 - 0.0
15/12:00am 28.9 31.5 23.3 72 3.9 SW 15 19 8 10 1011.2 - 0.0
 
Date/Time
WST
Temp
°C
App
Temp
°C
Dew
Point
°C
Rel
Hum
%
Delta-T
°C
Wind Press
QNH
hPa
Press
MSL
hPa
Rain since
9am
mm
Dir  Spd
km/h
Gust
km/h
Spd
kts
Gust
kts
14/11:30pm 29.0 31.3 23.4 72 3.9 SSW 17 20 9 11 1011.2 - 0.0
14/11:00pm 28.7 30.8 23.8 75 3.4 SW 19 26 10 14 1011.3 - 0.0
14/10:30pm 28.7 30.5 23.6 74 3.5 SSW 20 30 11 16 1011.3 - 0.0
14/10:00pm 28.5 30.7 24.3 78 2.9 SSW 20 30 11 16 1011.4 - 0.0
14/09:30pm 28.3 31.6 25.1 83 2.3 SW 17 22 9 12 1011.5 - 0.0
14/09:00pm 28.4 30.8 25.2 83 2.3 SW 22 30 12 16 1011.5 - 0.0
14/08:30pm 28.5 31.0 25.3 83 2.3 SW 22 28 12 15 1011.3 - 0.0
14/08:00pm 28.7 31.2 24.7 79 2.8 SW 20 28 11 15 1011.0 - 0.0
14/07:30pm 28.9 31.8 24.5 77 3.1 WSW 17 22 9 12 1010.6 - 0.0
14/07:00pm 29.8 31.7 22.8 66 4.8 SW 17 22 9 12 1010.4 - 0.0
14/06:30pm 30.1 31.0 22.0 62 5.5 SW 20 33 11 18 1010.2 - 0.0
14/06:00pm 30.7 32.1 21.8 59 6.1 SW 17 22 9 12 1010.1 - 0.0
14/05:30pm 31.0 32.2 21.5 57 6.4 SW 17 22 9 12 1009.9 - 0.0
14/05:00pm 31.4 32.1 21.6 56 6.7 SW 20 26 11 14 1009.6 - 0.0
14/04:30pm 31.2 32.8 22.2 58 6.2 WSW 17 22 9 12 1009.7 - 0.0
14/04:00pm 30.5 32.7 24.2 69 4.4 W 20 26 11 14 1009.7 - 0.0
14/03:30pm 31.8 33.9 22.5 58 6.4 W 15 20 8 11 1009.7 - 0.0
14/03:00pm 30.9 33.6 23.5 64 5.1 W 15 20 8 11 1009.8 - 0.0
14/02:30pm 31.0 33.5 23.1 63 5.5 W 15 20 8 11 1009.9 - 0.0
14/02:00pm 31.6 33.8 23.2 61 5.8 W 17 22 9 12 1010.1 - 0.0
14/01:30pm 31.9 35.2 23.2 60 6.0 WNW 11 24 6 13 1010.3 - 0.0
14/01:00pm 32.0 34.3 22.1 55 6.8 NNW 13 22 7 12 1010.9 - 0.0
14/12:30pm 31.4 33.9 22.4 59 6.2 N 13 19 7 10 1011.3 - 0.0
14/12:00pm 31.3 34.0 22.9 61 5.8 NNW 13 20 7 11 1011.9 - 0.0
14/11:30am 31.2 33.6 22.2 58 6.2 NNW 13 19 7 10 1012.4 - 0.0
14/11:00am 31.6 34.9 21.5 55 6.8 NNW 6 13 3 7 1012.8 - 0.0
14/10:30am 31.8 34.7 20.7 51 7.5 NW 6 9 3 5 1013.4 - 0.0
14/10:00am 30.7 33.4 20.3 53 6.9 S 6 15 3 8 1013.7 - 0.0
14/09:30am 30.2 32.5 20.7 56 6.3 S 9 15 5 8 1013.8 - 0.0
14/09:00am 29.8 30.9 20.4 57 6.2 SSE 15 19 8 10 1013.7 - 0.0
14/08:30am 29.5 29.8 20.4 58 6.0 S 19 24 10 13 1013.9 - 0.0
14/08:00am 29.4 31.3 21.4 62 5.4 SSE 13 17 7 9 1014.2 - 0.0
14/07:30am 28.9 31.6 22.9 70 4.1 SSE 13 17 7 9 1014.2 - 0.0
14/07:00am 28.8 33.2 23.5 73 3.7 ESE 6 9 3 5 1014.1 - 0.0
14/06:30am 28.4 31.4 22.6 71 4.0 SE 11 13 6 7 1013.4 - 0.0
14/06:00am 27.9 31.0 23.5 77 3.0 ESE 13 17 7 9 1013.2 - 0.0
14/05:30am 27.6 32.0 24.4 83 2.2 E 9 15 5 8 1013.0 - 0.0
14/05:00am 27.9 31.5 23.7 78 2.9 SE 11 17 6 9 1012.8 - 0.0
14/04:30am 27.3 31.7 24.4 84 2.0 ESE 9 11 5 6 1012.4 - 0.0
14/04:00am 27.8 32.6 24.4 82 2.4 SSE 7 9 4 5 1012.4 - 0.0
14/03:30am 27.8 32.1 24.2 81 2.5 SSE 9 11 5 6 1012.2 - 0.0
14/03:00am 28.0 31.5 24.2 80 2.6 S 13 17 7 9 1011.8 - 0.0
14/02:30am 28.1 31.5 24.1 79 2.8 S 13 19 7 10 1011.9 - 0.0
14/02:00am 28.2 31.7 24.2 79 2.8 S 13 17 7 9 1011.9 - 0.0
14/01:30am 27.9 31.3 24.7 83 2.2 SSW 15 20 8 11 1011.9 - 0.0
14/01:00am 28.0 31.1 24.8 83 2.2 SSW 17 20 9 11 1012.0 - 0.0
14/12:30am 27.9 31.6 25.1 85 2.0 SSW 15 19 8 10 1012.1 - 0.0
14/12:00am 27.9 30.8 25.1 85 2.0 SSW 19 22 10 12 1012.2 - 0.0
 
Date/Time
WST
Temp
°C
App
Temp
°C
Dew
Point
°C
Rel
Hum
%
Delta-T
°C
Wind Press
QNH
hPa
Press
MSL
hPa
Rain since
9am
mm
Dir  Spd
km/h
Gust
km/h
Spd
kts
Gust
kts
13/11:30pm 27.9 31.1 24.9 84 2.1 SSW 17 20 9 11 1012.4 - 0.0
13/11:00pm 28.0 31.1 24.8 83 2.2 SSW 17 22 9 12 1012.4 - 0.0
13/10:30pm 28.0 31.4 24.6 82 2.4 SSW 15 19 8 10 1012.5 - 0.0
13/10:00pm 28.0 31.4 24.6 82 2.4 SSW 15 19 8 10 1012.2 - 0.0
13/09:30pm 28.0 30.9 24.4 81 2.5 SSW 17 19 9 10 1012.0 - 0.0

Other formats

Comma delimited format used in spreadsheet applications
http://www.bom.gov.au/fwo/IDW60801/IDW60801.99200.axf

JavaScript Object Notation format (JSON) in row-major order
http://www.bom.gov.au/fwo/IDW60801/IDW60801.99200.json

Data quality

Most of these data are generated automatically and are frequently updated. Quality checks on data are not normally performed. It is possible for incorrect values to appear. Refer to information at About Latest Weather Observations and please check the disclaimer before using these data.